sensor_id;sensor_type;location;lat;lon;timestamp;temperature;humidity
75321;DHT22;63920;52.130;5.584;2022-11-20T00:00:49;0.00;90.10
75321;DHT22;63920;52.130;5.584;2022-11-20T00:03:15;0.10;89.80
75321;DHT22;63920;52.130;5.584;2022-11-20T00:05:40;0.10;89.10
75321;DHT22;63920;52.130;5.584;2022-11-20T00:08:06;0.10;89.10
75321;DHT22;63920;52.130;5.584;2022-11-20T00:10:31;0.20;89.20
75321;DHT22;63920;52.130;5.584;2022-11-20T00:13:00;0.20;88.40
75321;DHT22;63920;52.130;5.584;2022-11-20T00:15:25;-0.10;87.50
75321;DHT22;63920;52.130;5.584;2022-11-20T00:17:51;-0.60;90.00
75321;DHT22;63920;52.130;5.584;2022-11-20T00:20:17;-0.70;90.90
75321;DHT22;63920;52.130;5.584;2022-11-20T00:22:42;-0.80;91.20
75321;DHT22;63920;52.130;5.584;2022-11-20T00:25:08;-0.90;91.60
75321;DHT22;63920;52.130;5.584;2022-11-20T00:27:33;-0.90;91.50
75321;DHT22;63920;52.130;5.584;2022-11-20T00:29:59;-1.00;91.60
75321;DHT22;63920;52.130;5.584;2022-11-20T00:32:25;-1.20;92.00
75321;DHT22;63920;52.130;5.584;2022-11-20T00:34:50;-1.20;92.60
75321;DHT22;63920;52.130;5.584;2022-11-20T00:37:16;-1.00;92.70
75321;DHT22;63920;52.130;5.584;2022-11-20T00:39:41;-0.70;92.10
75321;DHT22;63920;52.130;5.584;2022-11-20T00:42:07;-0.40;91.10
75321;DHT22;63920;52.130;5.584;2022-11-20T00:44:32;-0.50;90.70
75321;DHT22;63920;52.130;5.584;2022-11-20T00:46:58;-0.70;90.70
75321;DHT22;63920;52.130;5.584;2022-11-20T00:49:23;-1.00;90.90
75321;DHT22;63920;52.130;5.584;2022-11-20T00:51:49;-1.00;91.70
75321;DHT22;63920;52.130;5.584;2022-11-20T00:54:14;-1.00;92.00
75321;DHT22;63920;52.130;5.584;2022-11-20T00:56:40;-0.70;91.70
75321;DHT22;63920;52.130;5.584;2022-11-20T00:59:05;-0.40;91.00
75321;DHT22;63920;52.130;5.584;2022-11-20T01:01:31;-0.50;90.00
75321;DHT22;63920;52.130;5.584;2022-11-20T01:03:58;-0.60;91.00
75321;DHT22;63920;52.130;5.584;2022-11-20T01:06:27;-0.30;90.70
75321;DHT22;63920;52.130;5.584;2022-11-20T01:08:56;-0.20;90.40
75321;DHT22;63920;52.130;5.584;2022-11-20T01:11:25;-0.10;89.90
75321;DHT22;63920;52.130;5.584;2022-11-20T01:13:51;-0.10;89.50
75321;DHT22;63920;52.130;5.584;2022-11-20T01:16:31;-0.10;88.80
75321;DHT22;63920;52.130;5.584;2022-11-20T01:19:00;0.00;89.40
75321;DHT22;63920;52.130;5.584;2022-11-20T01:21:32;-0.10;88.80
75321;DHT22;63920;52.130;5.584;2022-11-20T01:23:59;-0.10;88.90
75321;DHT22;63920;52.130;5.584;2022-11-20T01:26:27;0.00;88.80
75321;DHT22;63920;52.130;5.584;2022-11-20T01:28:53;0.00;87.70
75321;DHT22;63920;52.130;5.584;2022-11-20T01:31:31;-0.20;87.80
75321;DHT22;63920;52.130;5.584;2022-11-20T01:34:00;-0.20;88.60
75321;DHT22;63920;52.130;5.584;2022-11-20T01:36:28;-0.20;88.10
75321;DHT22;63920;52.130;5.584;2022-11-20T01:38:59;-0.30;88.80
75321;DHT22;63920;52.130;5.584;2022-11-20T01:41:26;-0.10;88.00
75321;DHT22;63920;52.130;5.584;2022-11-20T01:44:13;-0.10;87.60
75321;DHT22;63920;52.130;5.584;2022-11-20T01:46:45;-0.60;88.00
75321;DHT22;63920;52.130;5.584;2022-11-20T01:49:20;-0.90;89.70
75321;DHT22;63920;52.130;5.584;2022-11-20T01:51:57;-0.70;90.50
75321;DHT22;63920;52.130;5.584;2022-11-20T01:54:31;-0.60;90.00
75321;DHT22;63920;52.130;5.584;2022-11-20T01:56:59;-0.50;89.10
75321;DHT22;63920;52.130;5.584;2022-11-20T01:59:26;-1.00;89.40
75321;DHT22;63920;52.130;5.584;2022-11-20T02:01:53;-1.20;95.10
75321;DHT22;63920;52.130;5.584;2022-11-20T02:04:20;-1.30;99.90
75321;DHT22;63920;52.130;5.584;2022-11-20T02:07:02;-0.90;99.00
75321;DHT22;63920;52.130;5.584;2022-11-20T02:09:28;-0.90;99.90
75321;DHT22;63920;52.130;5.584;2022-11-20T02:11:54;-1.00;94.90
75321;DHT22;63920;52.130;5.584;2022-11-20T02:14:21;-1.10;96.60
75321;DHT22;63920;52.130;5.584;2022-11-20T02:16:48;-1.10;99.50
75321;DHT22;63920;52.130;5.584;2022-11-20T02:19:28;-1.20;96.60
75321;DHT22;63920;52.130;5.584;2022-11-20T02:22:12;-1.40;96.50
75321;DHT22;63920;52.130;5.584;2022-11-20T02:24:39;-1.30;95.50
75321;DHT22;63920;52.130;5.584;2022-11-20T02:27:12;-1.20;94.30
75321;DHT22;63920;52.130;5.584;2022-11-20T02:29:50;-1.20;91.50
75321;DHT22;63920;52.130;5.584;2022-11-20T02:32:32;-1.10;91.00
75321;DHT22;63920;52.130;5.584;2022-11-20T02:34:58;-0.90;90.70
75321;DHT22;63920;52.130;5.584;2022-11-20T02:37:35;-1.40;90.50
75321;DHT22;63920;52.130;5.584;2022-11-20T02:40:01;-1.40;90.00
75321;DHT22;63920;52.130;5.584;2022-11-20T02:42:27;-1.70;91.20
75321;DHT22;63920;52.130;5.584;2022-11-20T02:44:52;-1.70;91.70
75321;DHT22;63920;52.130;5.584;2022-11-20T02:47:18;-1.90;91.80
75321;DHT22;63920;52.130;5.584;2022-11-20T02:49:43;-2.00;94.10
75321;DHT22;63920;52.130;5.584;2022-11-20T02:52:09;-1.60;97.70
75321;DHT22;63920;52.130;5.584;2022-11-20T02:54:35;-1.60;93.50
75321;DHT22;63920;52.130;5.584;2022-11-20T02:57:00;-1.60;92.00
75321;DHT22;63920;52.130;5.584;2022-11-20T02:59:26;-1.50;91.70
75321;DHT22;63920;52.130;5.584;2022-11-20T03:01:51;-1.30;91.40
75321;DHT22;63920;52.130;5.584;2022-11-20T03:04:17;-1.30;91.20
75321;DHT22;63920;52.130;5.584;2022-11-20T03:06:42;-1.20;91.00
75321;DHT22;63920;52.130;5.584;2022-11-20T03:09:08;-1.10;90.90
75321;DHT22;63920;52.130;5.584;2022-11-20T03:11:34;-0.90;90.30
75321;DHT22;63920;52.130;5.584;2022-11-20T03:14:03;-1.00;89.80
75321;DHT22;63920;52.130;5.584;2022-11-20T03:16:28;-1.40;90.10
75321;DHT22;63920;52.130;5.584;2022-11-20T03:18:54;-1.70;91.00
75321;DHT22;63920;52.130;5.584;2022-11-20T03:21:19;-1.80;91.80
75321;DHT22;63920;52.130;5.584;2022-11-20T03:23:45;-1.80;92.20
75321;DHT22;63920;52.130;5.584;2022-11-20T03:28:38;-1.30;91.70
75321;DHT22;63920;52.130;5.584;2022-11-20T03:31:12;-1.40;91.10
75321;DHT22;63920;52.130;5.584;2022-11-20T03:33:40;-1.60;91.40
75321;DHT22;63920;52.130;5.584;2022-11-20T03:36:11;-1.70;91.70
75321;DHT22;63920;52.130;5.584;2022-11-20T03:38:37;-1.80;91.50
75321;DHT22;63920;52.130;5.584;2022-11-20T03:41:05;-1.80;91.90
75321;DHT22;63920;52.130;5.584;2022-11-20T03:43:31;-1.80;92.20
75321;DHT22;63920;52.130;5.584;2022-11-20T03:45:57;-1.50;91.60
75321;DHT22;63920;52.130;5.584;2022-11-20T03:48:23;-1.70;91.10
75321;DHT22;63920;52.130;5.584;2022-11-20T03:50:48;-2.00;91.90
75321;DHT22;63920;52.130;5.584;2022-11-20T03:53:15;-1.90;92.30
75321;DHT22;63920;52.130;5.584;2022-11-20T03:55:41;-2.10;93.80
75321;DHT22;63920;52.130;5.584;2022-11-20T03:58:06;-2.20;99.90
75321;DHT22;63920;52.130;5.584;2022-11-20T04:00:32;-1.90;97.60
75321;DHT22;63920;52.130;5.584;2022-11-20T04:02:58;-2.10;93.40
75321;DHT22;63920;52.130;5.584;2022-11-20T04:05:24;-2.20;91.80
75321;DHT22;63920;52.130;5.584;2022-11-20T04:07:50;-2.40;92.30
75321;DHT22;63920;52.130;5.584;2022-11-20T04:10:15;-2.10;92.90
75321;DHT22;63920;52.130;5.584;2022-11-20T04:12:41;-2.10;91.70
75321;DHT22;63920;52.130;5.584;2022-11-20T04:15:07;-2.10;92.00
75321;DHT22;63920;52.130;5.584;2022-11-20T04:17:32;-2.00;92.40
75321;DHT22;63920;52.130;5.584;2022-11-20T04:19:58;-2.20;91.60
75321;DHT22;63920;52.130;5.584;2022-11-20T04:22:23;-2.30;91.90
75321;DHT22;63920;52.130;5.584;2022-11-20T04:24:49;-2.30;92.50
75321;DHT22;63920;52.130;5.584;2022-11-20T04:27:14;-2.40;92.10
75321;DHT22;63920;52.130;5.584;2022-11-20T04:29:40;-2.40;92.50
75321;DHT22;63920;52.130;5.584;2022-11-20T04:32:06;-2.50;92.20
75321;DHT22;63920;52.130;5.584;2022-11-20T04:34:31;-2.40;92.60
75321;DHT22;63920;52.130;5.584;2022-11-20T04:36:57;-2.50;92.50
75321;DHT22;63920;52.130;5.584;2022-11-20T04:39:22;-2.30;92.70
75321;DHT22;63920;52.130;5.584;2022-11-20T04:41:48;-2.00;92.60
75321;DHT22;63920;52.130;5.584;2022-11-20T04:44:13;-2.00;91.20
75321;DHT22;63920;52.130;5.584;2022-11-20T04:46:42;-2.30;91.70
75321;DHT22;63920;52.130;5.584;2022-11-20T04:49:08;-2.30;92.20
75321;DHT22;63920;52.130;5.584;2022-11-20T04:51:34;-2.50;92.20
75321;DHT22;63920;52.130;5.584;2022-11-20T04:54:00;-2.60;92.40
75321;DHT22;63920;52.130;5.584;2022-11-20T04:56:25;-2.60;92.90
75321;DHT22;63920;52.130;5.584;2022-11-20T04:58:51;-2.30;93.00
75321;DHT22;63920;52.130;5.584;2022-11-20T05:01:22;-2.10;92.20
75321;DHT22;63920;52.130;5.584;2022-11-20T05:03:49;-2.30;91.70
75321;DHT22;63920;52.130;5.584;2022-11-20T05:06:18;-2.50;92.10
75321;DHT22;63920;52.130;5.584;2022-11-20T05:08:44;-2.40;92.70
75321;DHT22;63920;52.130;5.584;2022-11-20T05:11:12;-2.10;92.40
75321;DHT22;63920;52.130;5.584;2022-11-20T05:13:38;-1.90;91.90
75321;DHT22;63920;52.130;5.584;2022-11-20T05:16:09;-1.90;91.90
75321;DHT22;63920;52.130;5.584;2022-11-20T05:18:36;-2.00;91.60
75321;DHT22;63920;52.130;5.584;2022-11-20T05:21:02;-1.80;91.50
75321;DHT22;63920;52.130;5.584;2022-11-20T05:23:29;-1.80;91.30
75321;DHT22;63920;52.130;5.584;2022-11-20T05:25:56;-2.20;91.30
75321;DHT22;63920;52.130;5.584;2022-11-20T05:28:22;-2.40;92.00
75321;DHT22;63920;52.130;5.584;2022-11-20T05:30:49;-2.40;92.50
75321;DHT22;63920;52.130;5.584;2022-11-20T05:33:15;-2.20;92.00
75321;DHT22;63920;52.130;5.584;2022-11-20T05:35:41;-2.10;91.40
75321;DHT22;63920;52.130;5.584;2022-11-20T05:38:06;-2.20;91.20
75321;DHT22;63920;52.130;5.584;2022-11-20T05:40:32;-2.40;91.60
75321;DHT22;63920;52.130;5.584;2022-11-20T05:42:58;-2.20;92.00
75321;DHT22;63920;52.130;5.584;2022-11-20T05:45:24;-2.00;91.50
75321;DHT22;63920;52.130;5.584;2022-11-20T05:47:50;-2.10;91.40
75321;DHT22;63920;52.130;5.584;2022-11-20T05:50:15;-2.00;91.50
75321;DHT22;63920;52.130;5.584;2022-11-20T05:52:41;-2.00;91.10
75321;DHT22;63920;52.130;5.584;2022-11-20T05:55:07;-2.00;91.20
75321;DHT22;63920;52.130;5.584;2022-11-20T05:57:33;-1.90;91.10
75321;DHT22;63920;52.130;5.584;2022-11-20T05:59:58;-2.00;90.30
75321;DHT22;63920;52.130;5.584;2022-11-20T06:02:24;-2.30;91.20
75321;DHT22;63920;52.130;5.584;2022-11-20T06:04:50;-2.10;91.60
75321;DHT22;63920;52.130;5.584;2022-11-20T06:07:15;-2.20;90.50
75321;DHT22;63920;52.130;5.584;2022-11-20T06:09:41;-2.30;91.50
75321;DHT22;63920;52.130;5.584;2022-11-20T06:12:07;-2.10;91.10
75321;DHT22;63920;52.130;5.584;2022-11-20T06:14:35;-1.90;90.70
75321;DHT22;63920;52.130;5.584;2022-11-20T06:17:02;-1.80;90.30
75321;DHT22;63920;52.130;5.584;2022-11-20T06:19:27;-1.80;90.40
75321;DHT22;63920;52.130;5.584;2022-11-20T06:21:53;-1.90;90.90
75321;DHT22;63920;52.130;5.584;2022-11-20T06:24:18;-2.00;90.00
75321;DHT22;63920;52.130;5.584;2022-11-20T06:26:44;-2.40;90.70
75321;DHT22;63920;52.130;5.584;2022-11-20T06:29:09;-2.30;91.80
75321;DHT22;63920;52.130;5.584;2022-11-20T06:31:35;-2.20;91.20
75321;DHT22;63920;52.130;5.584;2022-11-20T06:34:03;-2.10;91.30
75321;DHT22;63920;52.130;5.584;2022-11-20T06:36:30;-2.00;90.90
75321;DHT22;63920;52.130;5.584;2022-11-20T06:38:55;-2.00;90.50
75321;DHT22;63920;52.130;5.584;2022-11-20T06:41:21;-2.00;90.50
75321;DHT22;63920;52.130;5.584;2022-11-20T06:43:48;-2.00;90.80
75321;DHT22;63920;52.130;5.584;2022-11-20T06:46:15;-2.00;90.70
75321;DHT22;63920;52.130;5.584;2022-11-20T06:48:42;-2.00;90.50
75321;DHT22;63920;52.130;5.584;2022-11-20T06:51:08;-2.10;90.70
75321;DHT22;63920;52.130;5.584;2022-11-20T06:53:35;-2.00;90.30
75321;DHT22;63920;52.130;5.584;2022-11-20T06:56:01;-2.10;90.00
75321;DHT22;63920;52.130;5.584;2022-11-20T06:58:28;-2.20;90.20
75321;DHT22;63920;52.130;5.584;2022-11-20T07:01:02;-2.30;90.30
75321;DHT22;63920;52.130;5.584;2022-11-20T07:03:28;-2.20;90.90
75321;DHT22;63920;52.130;5.584;2022-11-20T07:05:58;-2.20;90.50
75321;DHT22;63920;52.130;5.584;2022-11-20T07:08:24;-2.20;90.70
75321;DHT22;63920;52.130;5.584;2022-11-20T07:10:50;-2.40;90.20
75321;DHT22;63920;52.130;5.584;2022-11-20T07:13:15;-2.40;89.70
75321;DHT22;63920;52.130;5.584;2022-11-20T07:15:41;-2.50;90.00
75321;DHT22;63920;52.130;5.584;2022-11-20T07:18:06;-2.60;90.30
75321;DHT22;63920;52.130;5.584;2022-11-20T07:20:32;-2.60;90.50
75321;DHT22;63920;52.130;5.584;2022-11-20T07:22:58;-2.60;90.40
75321;DHT22;63920;52.130;5.584;2022-11-20T07:25:24;-2.70;90.90
75321;DHT22;63920;52.130;5.584;2022-11-20T07:27:51;-2.70;90.60
75321;DHT22;63920;52.130;5.584;2022-11-20T07:30:17;-2.70;90.60
75321;DHT22;63920;52.130;5.584;2022-11-20T07:32:42;-2.70;90.70
75321;DHT22;63920;52.130;5.584;2022-11-20T07:35:11;-2.70;90.70
75321;DHT22;63920;52.130;5.584;2022-11-20T07:37:36;-2.70;90.50
75321;DHT22;63920;52.130;5.584;2022-11-20T07:40:02;-2.60;90.60
75321;DHT22;63920;52.130;5.584;2022-11-20T07:42:28;-2.60;90.60
75321;DHT22;63920;52.130;5.584;2022-11-20T07:44:54;-2.60;90.60
75321;DHT22;63920;52.130;5.584;2022-11-20T07:47:20;-2.60;90.50
75321;DHT22;63920;52.130;5.584;2022-11-20T07:49:46;-2.60;90.70
75321;DHT22;63920;52.130;5.584;2022-11-20T07:52:11;-2.60;90.90
75321;DHT22;63920;52.130;5.584;2022-11-20T07:54:37;-2.60;90.80
75321;DHT22;63920;52.130;5.584;2022-11-20T07:57:03;-2.60;90.90
75321;DHT22;63920;52.130;5.584;2022-11-20T07:59:28;-2.50;91.10
75321;DHT22;63920;52.130;5.584;2022-11-20T08:01:54;-2.50;91.10
75321;DHT22;63920;52.130;5.584;2022-11-20T08:04:20;-2.40;91.00
75321;DHT22;63920;52.130;5.584;2022-11-20T08:06:46;-2.30;91.10
75321;DHT22;63920;52.130;5.584;2022-11-20T08:09:11;-2.30;91.00
75321;DHT22;63920;52.130;5.584;2022-11-20T08:11:37;-2.30;90.90
75321;DHT22;63920;52.130;5.584;2022-11-20T08:14:21;-2.20;91.10
75321;DHT22;63920;52.130;5.584;2022-11-20T08:16:48;-2.20;91.20
75321;DHT22;63920;52.130;5.584;2022-11-20T08:19:15;-2.10;91.30
75321;DHT22;63920;52.130;5.584;2022-11-20T08:21:42;-2.00;91.40
75321;DHT22;63920;52.130;5.584;2022-11-20T08:24:08;-1.90;91.50
75321;DHT22;63920;52.130;5.584;2022-11-20T08:26:35;-1.80;91.90
75321;DHT22;63920;52.130;5.584;2022-11-20T08:29:01;-1.70;91.90
75321;DHT22;63920;52.130;5.584;2022-11-20T08:31:27;-1.70;92.00
75321;DHT22;63920;52.130;5.584;2022-11-20T08:33:53;-1.70;91.90
75321;DHT22;63920;52.130;5.584;2022-11-20T08:36:20;-1.60;91.90
75321;DHT22;63920;52.130;5.584;2022-11-20T08:38:51;-1.40;91.80
75321;DHT22;63920;52.130;5.584;2022-11-20T08:41:17;-1.40;91.70
75321;DHT22;63920;52.130;5.584;2022-11-20T08:43:59;-1.40;92.00
75321;DHT22;63920;52.130;5.584;2022-11-20T08:46:27;-1.30;92.40
75321;DHT22;63920;52.130;5.584;2022-11-20T08:48:53;-1.30;92.10
75321;DHT22;63920;52.130;5.584;2022-11-20T08:51:19;-1.30;92.30
75321;DHT22;63920;52.130;5.584;2022-11-20T08:53:45;-1.20;92.10
75321;DHT22;63920;52.130;5.584;2022-11-20T08:56:11;-1.20;92.20
75321;DHT22;63920;52.130;5.584;2022-11-20T08:58:38;-1.30;92.40
75321;DHT22;63920;52.130;5.584;2022-11-20T09:01:03;-1.20;92.70
75321;DHT22;63920;52.130;5.584;2022-11-20T09:03:29;-1.20;92.70
75321;DHT22;63920;52.130;5.584;2022-11-20T09:05:59;-1.10;92.90
75321;DHT22;63920;52.130;5.584;2022-11-20T09:08:25;-1.10;92.90
75321;DHT22;63920;52.130;5.584;2022-11-20T09:10:52;-1.00;93.00
75321;DHT22;63920;52.130;5.584;2022-11-20T09:13:19;-1.00;93.00
75321;DHT22;63920;52.130;5.584;2022-11-20T09:15:44;-1.00;93.20
75321;DHT22;63920;52.130;5.584;2022-11-20T09:18:10;-0.90;93.60
75321;DHT22;63920;52.130;5.584;2022-11-20T09:20:35;-0.80;93.70
75321;DHT22;63920;52.130;5.584;2022-11-20T09:23:01;-0.70;93.70
75321;DHT22;63920;52.130;5.584;2022-11-20T09:25:26;-0.70;93.80
75321;DHT22;63920;52.130;5.584;2022-11-20T09:27:59;-0.60;93.80
75321;DHT22;63920;52.130;5.584;2022-11-20T09:30:25;-0.50;94.00
75321;DHT22;63920;52.130;5.584;2022-11-20T09:32:51;-0.50;93.80
75321;DHT22;63920;52.130;5.584;2022-11-20T09:35:17;-0.50;93.70
75321;DHT22;63920;52.130;5.584;2022-11-20T09:37:43;-0.40;93.80
75321;DHT22;63920;52.130;5.584;2022-11-20T09:40:26;-0.40;93.60
75321;DHT22;63920;52.130;5.584;2022-11-20T09:43:18;-0.40;93.80
75321;DHT22;63920;52.130;5.584;2022-11-20T09:46:14;-0.40;93.80
75321;DHT22;63920;52.130;5.584;2022-11-20T09:49:07;-0.30;93.90
75321;DHT22;63920;52.130;5.584;2022-11-20T09:51:50;-0.20;93.80
75321;DHT22;63920;52.130;5.584;2022-11-20T09:54:18;-0.20;93.60
75321;DHT22;63920;52.130;5.584;2022-11-20T09:56:51;-0.30;93.60
75321;DHT22;63920;52.130;5.584;2022-11-20T10:01:57;-0.20;93.80
75321;DHT22;63920;52.130;5.584;2022-11-20T10:04:24;-0.20;94.00
75321;DHT22;63920;52.130;5.584;2022-11-20T10:07:00;-0.10;93.90
75321;DHT22;63920;52.130;5.584;2022-11-20T10:09:37;0.00;93.70
75321;DHT22;63920;52.130;5.584;2022-11-20T10:15:06;0.10;93.70
75321;DHT22;63920;52.130;5.584;2022-11-20T10:26:22;0.40;93.90
75321;DHT22;63920;52.130;5.584;2022-11-20T10:31:39;0.50;93.50
75321;DHT22;63920;52.130;5.584;2022-11-20T10:34:43;0.60;93.60
75321;DHT22;63920;52.130;5.584;2022-11-20T10:37:22;0.60;93.70
75321;DHT22;63920;52.130;5.584;2022-11-20T10:40:02;0.70;93.60
75321;DHT22;63920;52.130;5.584;2022-11-20T10:42:40;0.70;93.70
75321;DHT22;63920;52.130;5.584;2022-11-20T10:50:35;0.90;93.60
75321;DHT22;63920;52.130;5.584;2022-11-20T10:53:04;0.90;93.70
75321;DHT22;63920;52.130;5.584;2022-11-20T10:55:39;0.90;93.80
75321;DHT22;63920;52.130;5.584;2022-11-20T10:58:17;1.00;93.70
75321;DHT22;63920;52.130;5.584;2022-11-20T11:00:44;1.00;93.80
75321;DHT22;63920;52.130;5.584;2022-11-20T11:03:22;1.20;94.00
75321;DHT22;63920;52.130;5.584;2022-11-20T11:05:56;1.10;94.70
75321;DHT22;63920;52.130;5.584;2022-11-20T11:08:27;1.30;95.50
75321;DHT22;63920;52.130;5.584;2022-11-20T11:10:59;1.30;96.30
75321;DHT22;63920;52.130;5.584;2022-11-20T11:13:30;1.20;97.40
75321;DHT22;63920;52.130;5.584;2022-11-20T11:15:57;1.40;98.20
75321;DHT22;63920;52.130;5.584;2022-11-20T11:18:30;1.30;98.50
75321;DHT22;63920;52.130;5.584;2022-11-20T11:20:59;1.50;97.90
75321;DHT22;63920;52.130;5.584;2022-11-20T11:23:39;1.50;97.60
75321;DHT22;63920;52.130;5.584;2022-11-20T11:26:17;1.80;97.70
75321;DHT22;63920;52.130;5.584;2022-11-20T11:28:56;1.90;99.90
75321;DHT22;63920;52.130;5.584;2022-11-20T11:31:26;1.40;99.90
75321;DHT22;63920;52.130;5.584;2022-11-20T11:34:03;1.80;99.50
75321;DHT22;63920;52.130;5.584;2022-11-20T11:36:28;1.70;95.40
75321;DHT22;63920;52.130;5.584;2022-11-20T11:38:54;1.80;95.10
75321;DHT22;63920;52.130;5.584;2022-11-20T11:41:25;1.80;95.00
75321;DHT22;63920;52.130;5.584;2022-11-20T11:43:57;1.90;95.10
75321;DHT22;63920;52.130;5.584;2022-11-20T11:46:49;1.80;95.00
75321;DHT22;63920;52.130;5.584;2022-11-20T11:49:19;1.90;95.10
75321;DHT22;63920;52.130;5.584;2022-11-20T11:52:05;1.90;95.20
75321;DHT22;63920;52.130;5.584;2022-11-20T11:54:45;1.90;95.30
75321;DHT22;63920;52.130;5.584;2022-11-20T11:57:27;1.90;95.10
75321;DHT22;63920;52.130;5.584;2022-11-20T12:05:23;2.00;95.00
75321;DHT22;63920;52.130;5.584;2022-11-20T12:15:45;2.10;95.00
75321;DHT22;63920;52.130;5.584;2022-11-20T12:18:16;2.20;94.90
75321;DHT22;63920;52.130;5.584;2022-11-20T12:20:48;2.20;95.10
75321;DHT22;63920;52.130;5.584;2022-11-20T12:23:30;2.20;95.10
75321;DHT22;63920;52.130;5.584;2022-11-20T12:26:01;2.10;95.40
75321;DHT22;63920;52.130;5.584;2022-11-20T12:28:39;2.20;95.60
75321;DHT22;63920;52.130;5.584;2022-11-20T12:31:24;2.10;95.70
75321;DHT22;63920;52.130;5.584;2022-11-20T12:36:37;2.10;95.80
75321;DHT22;63920;52.130;5.584;2022-11-20T12:45:06;2.20;96.00
75321;DHT22;63920;52.130;5.584;2022-11-20T13:01:25;2.20;95.80
75321;DHT22;63920;52.130;5.584;2022-11-20T13:07:08;2.30;96.20
75321;DHT22;63920;52.130;5.584;2022-11-20T13:09:46;2.30;96.10
75321;DHT22;63920;52.130;5.584;2022-11-20T13:17:57;2.30;96.60
75321;DHT22;63920;52.130;5.584;2022-11-20T13:20:24;2.30;96.70
75321;DHT22;63920;52.130;5.584;2022-11-20T13:22:51;2.20;96.90
75321;DHT22;63920;52.130;5.584;2022-11-20T13:25:28;2.20;97.10
75321;DHT22;63920;52.130;5.584;2022-11-20T13:27:55;2.20;97.20
75321;DHT22;63920;52.130;5.584;2022-11-20T13:30:22;2.20;97.00
75321;DHT22;63920;52.130;5.584;2022-11-20T13:32:56;2.30;97.10
75321;DHT22;63920;52.130;5.584;2022-11-20T13:35:31;2.30;97.20
75321;DHT22;63920;52.130;5.584;2022-11-20T13:38:05;2.30;97.00
75321;DHT22;63920;52.130;5.584;2022-11-20T13:40:33;2.30;97.00
75321;DHT22;63920;52.130;5.584;2022-11-20T13:43:10;2.40;97.10
75321;DHT22;63920;52.130;5.584;2022-11-20T13:45:36;2.40;97.00
75321;DHT22;63920;52.130;5.584;2022-11-20T13:48:04;2.40;97.20
75321;DHT22;63920;52.130;5.584;2022-11-20T13:53:28;2.40;97.10
75321;DHT22;63920;52.130;5.584;2022-11-20T14:01:35;2.40;97.20
75321;DHT22;63920;52.130;5.584;2022-11-20T14:04:09;2.40;97.10
75321;DHT22;63920;52.130;5.584;2022-11-20T14:06:43;2.40;97.00
75321;DHT22;63920;52.130;5.584;2022-11-20T14:09:24;2.40;97.30
75321;DHT22;63920;52.130;5.584;2022-11-20T14:11:51;2.40;97.20
75321;DHT22;63920;52.130;5.584;2022-11-20T14:14:22;2.40;97.20
75321;DHT22;63920;52.130;5.584;2022-11-20T14:16:49;2.40;97.40
75321;DHT22;63920;52.130;5.584;2022-11-20T14:19:28;2.50;97.30
75321;DHT22;63920;52.130;5.584;2022-11-20T14:22:20;2.50;97.20
75321;DHT22;63920;52.130;5.584;2022-11-20T14:25:17;2.50;97.30
75321;DHT22;63920;52.130;5.584;2022-11-20T14:27:46;2.60;97.40
75321;DHT22;63920;52.130;5.584;2022-11-20T14:30:19;2.60;97.70
75321;DHT22;63920;52.130;5.584;2022-11-20T14:32:46;2.50;97.20
75321;DHT22;63920;52.130;5.584;2022-11-20T14:35:25;2.50;97.30
75321;DHT22;63920;52.130;5.584;2022-11-20T14:37:51;2.50;97.20
75321;DHT22;63920;52.130;5.584;2022-11-20T14:40:33;2.60;97.40
75321;DHT22;63920;52.130;5.584;2022-11-20T14:46:04;2.50;97.60
75321;DHT22;63920;52.130;5.584;2022-11-20T14:48:33;2.50;97.50
75321;DHT22;63920;52.130;5.584;2022-11-20T14:51:02;2.40;97.70
75321;DHT22;63920;52.130;5.584;2022-11-20T14:53:27;2.50;97.80
75321;DHT22;63920;52.130;5.584;2022-11-20T14:56:01;2.50;97.90
75321;DHT22;63920;52.130;5.584;2022-11-20T14:58:29;2.60;98.00
75321;DHT22;63920;52.130;5.584;2022-11-20T15:01:06;2.60;98.00
75321;DHT22;63920;52.130;5.584;2022-11-20T15:03:35;2.60;98.10
75321;DHT22;63920;52.130;5.584;2022-11-20T15:06:01;2.60;98.00
75321;DHT22;63920;52.130;5.584;2022-11-20T15:08:27;2.60;98.40
75321;DHT22;63920;52.130;5.584;2022-11-20T15:10:53;2.60;98.00
75321;DHT22;63920;52.130;5.584;2022-11-20T15:13:33;2.60;97.90
75321;DHT22;63920;52.130;5.584;2022-11-20T15:16:01;2.60;98.00
75321;DHT22;63920;52.130;5.584;2022-11-20T15:18:38;2.60;97.90
75321;DHT22;63920;52.130;5.584;2022-11-20T15:21:11;2.50;97.80
75321;DHT22;63920;52.130;5.584;2022-11-20T15:23:37;2.50;98.00
75321;DHT22;63920;52.130;5.584;2022-11-20T15:26:07;2.60;98.00
75321;DHT22;63920;52.130;5.584;2022-11-20T15:28:41;2.50;98.10
75321;DHT22;63920;52.130;5.584;2022-11-20T15:31:13;2.60;98.10
75321;DHT22;63920;52.130;5.584;2022-11-20T15:33:39;2.60;98.20
75321;DHT22;63920;52.130;5.584;2022-11-20T15:36:04;2.60;98.20
75321;DHT22;63920;52.130;5.584;2022-11-20T15:38:30;2.60;98.20
75321;DHT22;63920;52.130;5.584;2022-11-20T15:40:56;2.60;98.10
75321;DHT22;63920;52.130;5.584;2022-11-20T15:43:22;2.60;98.20
75321;DHT22;63920;52.130;5.584;2022-11-20T15:45:59;2.60;98.30
75321;DHT22;63920;52.130;5.584;2022-11-20T15:48:29;2.60;98.30
75321;DHT22;63920;52.130;5.584;2022-11-20T15:53:26;2.60;98.30
75321;DHT22;63920;52.130;5.584;2022-11-20T15:55:52;2.70;98.30
75321;DHT22;63920;52.130;5.584;2022-11-20T15:58:18;2.70;98.30
75321;DHT22;63920;52.130;5.584;2022-11-20T16:00:44;2.70;98.20
75321;DHT22;63920;52.130;5.584;2022-11-20T16:03:14;2.70;98.30
75321;DHT22;63920;52.130;5.584;2022-11-20T16:05:40;2.70;98.30
75321;DHT22;63920;52.130;5.584;2022-11-20T16:08:06;2.70;98.20
75321;DHT22;63920;52.130;5.584;2022-11-20T16:10:32;2.70;98.10
75321;DHT22;63920;52.130;5.584;2022-11-20T16:12:57;2.70;98.20
75321;DHT22;63920;52.130;5.584;2022-11-20T16:15:42;2.70;98.30
75321;DHT22;63920;52.130;5.584;2022-11-20T16:18:13;2.80;98.30
75321;DHT22;63920;52.130;5.584;2022-11-20T16:20:39;2.70;98.30
75321;DHT22;63920;52.130;5.584;2022-11-20T16:23:06;2.70;98.30
75321;DHT22;63920;52.130;5.584;2022-11-20T16:25:32;2.70;98.40
75321;DHT22;63920;52.130;5.584;2022-11-20T16:27:58;2.70;98.50
75321;DHT22;63920;52.130;5.584;2022-11-20T16:30:24;2.70;98.60
75321;DHT22;63920;52.130;5.584;2022-11-20T16:32:50;2.70;98.60
75321;DHT22;63920;52.130;5.584;2022-11-20T16:35:15;2.70;98.60
75321;DHT22;63920;52.130;5.584;2022-11-20T16:37:41;2.70;98.40
75321;DHT22;63920;52.130;5.584;2022-11-20T16:40:09;2.70;98.50
75321;DHT22;63920;52.130;5.584;2022-11-20T16:42:35;2.70;98.60
75321;DHT22;63920;52.130;5.584;2022-11-20T16:45:02;2.80;98.80
75321;DHT22;63920;52.130;5.584;2022-11-20T16:47:28;2.80;98.80
75321;DHT22;63920;52.130;5.584;2022-11-20T16:49:53;2.80;98.90
75321;DHT22;63920;52.130;5.584;2022-11-20T16:52:19;2.80;99.10
75321;DHT22;63920;52.130;5.584;2022-11-20T16:54:45;2.80;98.80
75321;DHT22;63920;52.130;5.584;2022-11-20T16:57:10;2.80;98.80
75321;DHT22;63920;52.130;5.584;2022-11-20T16:59:36;2.80;98.90
75321;DHT22;63920;52.130;5.584;2022-11-20T17:02:02;2.80;98.90
75321;DHT22;63920;52.130;5.584;2022-11-20T17:04:28;2.80;98.80
75321;DHT22;63920;52.130;5.584;2022-11-20T17:06:53;2.80;98.90
75321;DHT22;63920;52.130;5.584;2022-11-20T17:09:19;2.80;98.80
75321;DHT22;63920;52.130;5.584;2022-11-20T17:11:44;2.80;98.80